sensor_id;sensor_type;location;lat;lon;timestamp;temperature;humidity
19941;DHT22;10132;50.864;5.176;2023-12-20T00:00:32;6.90;99.90
19941;DHT22;10132;50.864;5.176;2023-12-20T00:02:34;6.90;99.90
19941;DHT22;10132;50.864;5.176;2023-12-20T00:04:36;6.80;99.90
19941;DHT22;10132;50.864;5.176;2023-12-20T00:06:37;6.80;99.90
19941;DHT22;10132;50.864;5.176;2023-12-20T00:08:39;6.80;99.90
19941;DHT22;10132;50.864;5.176;2023-12-20T00:10:43;6.70;99.90
19941;DHT22;10132;50.864;5.176;2023-12-20T00:12:45;6.80;99.90
19941;DHT22;10132;50.864;5.176;2023-12-20T00:14:46;6.80;99.90
19941;DHT22;10132;50.864;5.176;2023-12-20T00:16:48;6.70;99.90
19941;DHT22;10132;50.864;5.176;2023-12-20T00:18:50;6.80;99.90
19941;DHT22;10132;50.864;5.176;2023-12-20T00:20:52;6.80;99.90
19941;DHT22;10132;50.864;5.176;2023-12-20T00:22:54;6.80;99.90
19941;DHT22;10132;50.864;5.176;2023-12-20T00:24:56;6.80;99.90
19941;DHT22;10132;50.864;5.176;2023-12-20T00:26:59;6.80;99.90
19941;DHT22;10132;50.864;5.176;2023-12-20T00:29:01;6.80;99.90
19941;DHT22;10132;50.864;5.176;2023-12-20T00:31:03;6.80;99.90
19941;DHT22;10132;50.864;5.176;2023-12-20T00:33:05;6.70;99.90
19941;DHT22;10132;50.864;5.176;2023-12-20T00:35:07;6.60;99.90
19941;DHT22;10132;50.864;5.176;2023-12-20T00:37:09;6.60;99.90
19941;DHT22;10132;50.864;5.176;2023-12-20T00:39:11;6.60;99.90
19941;DHT22;10132;50.864;5.176;2023-12-20T00:41:13;6.50;99.90
19941;DHT22;10132;50.864;5.176;2023-12-20T00:43:15;6.60;99.90
19941;DHT22;10132;50.864;5.176;2023-12-20T00:45:17;6.50;99.90
19941;DHT22;10132;50.864;5.176;2023-12-20T00:47:19;6.50;99.90
19941;DHT22;10132;50.864;5.176;2023-12-20T00:49:21;6.50;99.90
19941;DHT22;10132;50.864;5.176;2023-12-20T00:51:22;6.50;99.90
19941;DHT22;10132;50.864;5.176;2023-12-20T00:53:24;6.60;99.90
19941;DHT22;10132;50.864;5.176;2023-12-20T00:55:25;6.60;99.90
19941;DHT22;10132;50.864;5.176;2023-12-20T00:57:27;6.50;99.90
19941;DHT22;10132;50.864;5.176;2023-12-20T00:59:31;6.60;99.90
19941;DHT22;10132;50.864;5.176;2023-12-20T01:01:33;6.60;99.90
19941;DHT22;10132;50.864;5.176;2023-12-20T01:03:33;6.60;99.90
19941;DHT22;10132;50.864;5.176;2023-12-20T01:05:35;6.60;99.90
19941;DHT22;10132;50.864;5.176;2023-12-20T01:07:37;6.60;99.90
19941;DHT22;10132;50.864;5.176;2023-12-20T01:09:39;6.60;99.90
19941;DHT22;10132;50.864;5.176;2023-12-20T01:11:41;6.70;99.90
19941;DHT22;10132;50.864;5.176;2023-12-20T01:13:43;6.60;99.90
19941;DHT22;10132;50.864;5.176;2023-12-20T01:15:47;6.60;99.90
19941;DHT22;10132;50.864;5.176;2023-12-20T01:17:49;6.60;99.90
19941;DHT22;10132;50.864;5.176;2023-12-20T01:19:52;6.60;99.90
19941;DHT22;10132;50.864;5.176;2023-12-20T01:21:54;6.60;99.90
19941;DHT22;10132;50.864;5.176;2023-12-20T01:23:56;6.60;99.90
19941;DHT22;10132;50.864;5.176;2023-12-20T01:25:58;6.60;99.90
19941;DHT22;10132;50.864;5.176;2023-12-20T01:28:00;6.50;99.90
19941;DHT22;10132;50.864;5.176;2023-12-20T01:30:04;6.40;99.90
19941;DHT22;10132;50.864;5.176;2023-12-20T01:32:08;6.30;99.90
19941;DHT22;10132;50.864;5.176;2023-12-20T01:34:10;6.30;99.90
19941;DHT22;10132;50.864;5.176;2023-12-20T01:36:12;6.20;99.90
19941;DHT22;10132;50.864;5.176;2023-12-20T01:38:14;6.10;99.90
19941;DHT22;10132;50.864;5.176;2023-12-20T01:40:19;6.10;99.90
19941;DHT22;10132;50.864;5.176;2023-12-20T01:42:21;6.10;99.90
19941;DHT22;10132;50.864;5.176;2023-12-20T01:44:23;6.00;99.90
19941;DHT22;10132;50.864;5.176;2023-12-20T01:46:26;6.00;99.90
19941;DHT22;10132;50.864;5.176;2023-12-20T01:48:29;6.00;99.90
19941;DHT22;10132;50.864;5.176;2023-12-20T01:50:36;6.00;99.90
19941;DHT22;10132;50.864;5.176;2023-12-20T01:52:37;5.90;99.90
19941;DHT22;10132;50.864;5.176;2023-12-20T01:54:40;5.90;99.90
19941;DHT22;10132;50.864;5.176;2023-12-20T01:56:43;5.90;99.90
19941;DHT22;10132;50.864;5.176;2023-12-20T01:58:46;5.90;99.90
19941;DHT22;10132;50.864;5.176;2023-12-20T02:00:49;5.90;99.90
19941;DHT22;10132;50.864;5.176;2023-12-20T02:02:53;5.80;99.90
19941;DHT22;10132;50.864;5.176;2023-12-20T02:04:57;5.90;99.90
19941;DHT22;10132;50.864;5.176;2023-12-20T02:06:59;5.90;99.90
19941;DHT22;10132;50.864;5.176;2023-12-20T02:09:01;5.80;99.90
19941;DHT22;10132;50.864;5.176;2023-12-20T02:11:02;5.70;99.90
19941;DHT22;10132;50.864;5.176;2023-12-20T02:13:04;5.60;99.90
19941;DHT22;10132;50.864;5.176;2023-12-20T02:15:07;5.60;99.90
19941;DHT22;10132;50.864;5.176;2023-12-20T02:17:09;5.60;99.90
19941;DHT22;10132;50.864;5.176;2023-12-20T02:19:13;5.70;99.90
19941;DHT22;10132;50.864;5.176;2023-12-20T02:21:17;5.60;99.90
19941;DHT22;10132;50.864;5.176;2023-12-20T02:23:20;5.60;99.90
19941;DHT22;10132;50.864;5.176;2023-12-20T02:25:22;5.60;99.90
19941;DHT22;10132;50.864;5.176;2023-12-20T02:27:24;5.60;99.90
19941;DHT22;10132;50.864;5.176;2023-12-20T02:29:27;5.60;99.90
19941;DHT22;10132;50.864;5.176;2023-12-20T02:31:29;5.50;99.90
19941;DHT22;10132;50.864;5.176;2023-12-20T02:33:31;5.60;99.90
19941;DHT22;10132;50.864;5.176;2023-12-20T02:35:33;5.50;99.90
19941;DHT22;10132;50.864;5.176;2023-12-20T02:37:34;5.50;99.90
19941;DHT22;10132;50.864;5.176;2023-12-20T02:39:37;5.50;99.90
19941;DHT22;10132;50.864;5.176;2023-12-20T02:41:38;5.40;99.90
19941;DHT22;10132;50.864;5.176;2023-12-20T02:43:40;5.40;99.90
19941;DHT22;10132;50.864;5.176;2023-12-20T02:45:42;5.40;99.90
19941;DHT22;10132;50.864;5.176;2023-12-20T02:47:44;5.40;99.90
19941;DHT22;10132;50.864;5.176;2023-12-20T02:49:45;5.30;99.90
19941;DHT22;10132;50.864;5.176;2023-12-20T02:51:47;5.20;99.90
19941;DHT22;10132;50.864;5.176;2023-12-20T02:53:49;5.20;99.90
19941;DHT22;10132;50.864;5.176;2023-12-20T02:55:53;5.20;99.90
19941;DHT22;10132;50.864;5.176;2023-12-20T02:57:54;5.20;99.90
19941;DHT22;10132;50.864;5.176;2023-12-20T02:59:56;5.20;99.90
19941;DHT22;10132;50.864;5.176;2023-12-20T03:01:57;5.20;99.90
19941;DHT22;10132;50.864;5.176;2023-12-20T03:03:59;5.20;99.90
19941;DHT22;10132;50.864;5.176;2023-12-20T03:06:00;5.20;99.90
19941;DHT22;10132;50.864;5.176;2023-12-20T03:08:02;5.30;99.90
19941;DHT22;10132;50.864;5.176;2023-12-20T03:10:05;5.30;99.90
19941;DHT22;10132;50.864;5.176;2023-12-20T03:12:09;5.30;99.90
19941;DHT22;10132;50.864;5.176;2023-12-20T03:14:11;5.40;99.90
19941;DHT22;10132;50.864;5.176;2023-12-20T03:16:13;5.40;99.90
19941;DHT22;10132;50.864;5.176;2023-12-20T03:18:17;5.40;99.90
19941;DHT22;10132;50.864;5.176;2023-12-20T03:20:19;5.50;99.90
19941;DHT22;10132;50.864;5.176;2023-12-20T03:22:20;5.40;99.90
19941;DHT22;10132;50.864;5.176;2023-12-20T03:24:22;5.50;99.90
19941;DHT22;10132;50.864;5.176;2023-12-20T03:26:24;5.50;99.90
19941;DHT22;10132;50.864;5.176;2023-12-20T03:28:28;5.50;99.90
19941;DHT22;10132;50.864;5.176;2023-12-20T03:30:30;5.50;99.90
19941;DHT22;10132;50.864;5.176;2023-12-20T03:32:31;5.50;99.90
19941;DHT22;10132;50.864;5.176;2023-12-20T03:34:33;5.50;99.90
19941;DHT22;10132;50.864;5.176;2023-12-20T03:36:35;5.60;99.90
19941;DHT22;10132;50.864;5.176;2023-12-20T03:38:37;5.60;99.90
19941;DHT22;10132;50.864;5.176;2023-12-20T03:40:39;5.60;99.90
19941;DHT22;10132;50.864;5.176;2023-12-20T03:42:41;5.60;99.90
19941;DHT22;10132;50.864;5.176;2023-12-20T03:44:44;5.60;99.90
19941;DHT22;10132;50.864;5.176;2023-12-20T03:46:46;5.60;99.90
19941;DHT22;10132;50.864;5.176;2023-12-20T03:48:49;5.60;99.90
19941;DHT22;10132;50.864;5.176;2023-12-20T03:50:51;5.60;99.90
19941;DHT22;10132;50.864;5.176;2023-12-20T03:52:53;5.70;99.90
19941;DHT22;10132;50.864;5.176;2023-12-20T03:54:55;5.70;99.90
19941;DHT22;10132;50.864;5.176;2023-12-20T03:56:57;5.80;99.90
19941;DHT22;10132;50.864;5.176;2023-12-20T03:58:59;5.80;99.90
19941;DHT22;10132;50.864;5.176;2023-12-20T04:01:03;5.80;99.90
19941;DHT22;10132;50.864;5.176;2023-12-20T04:03:05;5.80;99.90
19941;DHT22;10132;50.864;5.176;2023-12-20T04:05:07;5.90;99.90
19941;DHT22;10132;50.864;5.176;2023-12-20T04:07:10;5.90;99.90
19941;DHT22;10132;50.864;5.176;2023-12-20T04:09:11;5.90;99.90
19941;DHT22;10132;50.864;5.176;2023-12-20T04:11:13;5.90;99.90
19941;DHT22;10132;50.864;5.176;2023-12-20T04:13:15;5.90;99.90
19941;DHT22;10132;50.864;5.176;2023-12-20T04:15:17;5.90;99.90
19941;DHT22;10132;50.864;5.176;2023-12-20T04:17:20;6.00;99.90
19941;DHT22;10132;50.864;5.176;2023-12-20T04:19:23;6.00;99.90
19941;DHT22;10132;50.864;5.176;2023-12-20T04:21:25;6.00;99.90
19941;DHT22;10132;50.864;5.176;2023-12-20T04:23:27;5.90;99.90
19941;DHT22;10132;50.864;5.176;2023-12-20T04:25:29;6.00;99.90
19941;DHT22;10132;50.864;5.176;2023-12-20T04:27:31;6.00;99.90
19941;DHT22;10132;50.864;5.176;2023-12-20T04:29:33;6.00;99.90
19941;DHT22;10132;50.864;5.176;2023-12-20T04:31:35;5.90;99.90
19941;DHT22;10132;50.864;5.176;2023-12-20T04:33:37;6.00;99.90
19941;DHT22;10132;50.864;5.176;2023-12-20T04:35:39;5.90;99.90
19941;DHT22;10132;50.864;5.176;2023-12-20T04:37:43;5.80;99.90
19941;DHT22;10132;50.864;5.176;2023-12-20T04:39:45;5.80;99.90
19941;DHT22;10132;50.864;5.176;2023-12-20T04:41:47;5.80;99.90
19941;DHT22;10132;50.864;5.176;2023-12-20T04:43:50;5.70;99.90
19941;DHT22;10132;50.864;5.176;2023-12-20T04:45:52;5.70;99.90
19941;DHT22;10132;50.864;5.176;2023-12-20T04:47:55;5.70;99.90
19941;DHT22;10132;50.864;5.176;2023-12-20T04:49:58;5.60;99.90
19941;DHT22;10132;50.864;5.176;2023-12-20T04:51:59;5.60;99.90
19941;DHT22;10132;50.864;5.176;2023-12-20T04:54:01;5.50;99.90
19941;DHT22;10132;50.864;5.176;2023-12-20T04:56:04;5.50;99.90
19941;DHT22;10132;50.864;5.176;2023-12-20T04:58:06;5.50;99.90
19941;DHT22;10132;50.864;5.176;2023-12-20T05:00:09;5.50;99.90
19941;DHT22;10132;50.864;5.176;2023-12-20T05:02:10;5.50;99.90
19941;DHT22;10132;50.864;5.176;2023-12-20T05:04:12;5.50;99.90
19941;DHT22;10132;50.864;5.176;2023-12-20T05:06:15;5.50;99.90
19941;DHT22;10132;50.864;5.176;2023-12-20T05:08:17;5.40;99.90
19941;DHT22;10132;50.864;5.176;2023-12-20T05:10:19;5.50;99.90
19941;DHT22;10132;50.864;5.176;2023-12-20T05:12:21;5.50;99.90
19941;DHT22;10132;50.864;5.176;2023-12-20T05:14:22;5.50;99.90
19941;DHT22;10132;50.864;5.176;2023-12-20T05:16:24;5.50;99.90
19941;DHT22;10132;50.864;5.176;2023-12-20T05:18:25;5.50;99.90
19941;DHT22;10132;50.864;5.176;2023-12-20T05:20:27;5.50;99.90
19941;DHT22;10132;50.864;5.176;2023-12-20T05:22:30;5.50;99.90
19941;DHT22;10132;50.864;5.176;2023-12-20T05:24:31;5.50;99.90
19941;DHT22;10132;50.864;5.176;2023-12-20T05:26:33;5.50;99.90
19941;DHT22;10132;50.864;5.176;2023-12-20T05:28:35;5.60;99.90
19941;DHT22;10132;50.864;5.176;2023-12-20T05:30:36;5.60;99.90
19941;DHT22;10132;50.864;5.176;2023-12-20T05:32:38;5.60;99.90
19941;DHT22;10132;50.864;5.176;2023-12-20T05:34:40;5.50;99.90
19941;DHT22;10132;50.864;5.176;2023-12-20T05:36:42;5.60;99.90
19941;DHT22;10132;50.864;5.176;2023-12-20T05:38:45;5.60;99.90
19941;DHT22;10132;50.864;5.176;2023-12-20T05:40:47;5.50;99.90
19941;DHT22;10132;50.864;5.176;2023-12-20T05:42:49;5.50;99.90
19941;DHT22;10132;50.864;5.176;2023-12-20T05:44:51;5.50;99.90
19941;DHT22;10132;50.864;5.176;2023-12-20T05:46:53;5.50;99.90
19941;DHT22;10132;50.864;5.176;2023-12-20T05:48:54;5.40;99.90
19941;DHT22;10132;50.864;5.176;2023-12-20T05:50:56;5.40;99.90
19941;DHT22;10132;50.864;5.176;2023-12-20T05:52:58;5.40;99.90
19941;DHT22;10132;50.864;5.176;2023-12-20T05:55:01;5.40;99.90
19941;DHT22;10132;50.864;5.176;2023-12-20T05:57:04;5.40;99.90
19941;DHT22;10132;50.864;5.176;2023-12-20T05:59:06;5.40;99.90
19941;DHT22;10132;50.864;5.176;2023-12-20T06:01:08;5.40;99.90
19941;DHT22;10132;50.864;5.176;2023-12-20T06:03:10;5.40;99.90
19941;DHT22;10132;50.864;5.176;2023-12-20T06:05:12;5.40;99.90
19941;DHT22;10132;50.864;5.176;2023-12-20T06:07:14;5.40;99.90
19941;DHT22;10132;50.864;5.176;2023-12-20T06:09:17;5.40;99.90
19941;DHT22;10132;50.864;5.176;2023-12-20T06:11:20;5.30;99.90
19941;DHT22;10132;50.864;5.176;2023-12-20T06:13:22;5.30;99.90
19941;DHT22;10132;50.864;5.176;2023-12-20T06:15:24;5.30;99.90
19941;DHT22;10132;50.864;5.176;2023-12-20T06:17:26;5.20;99.90
19941;DHT22;10132;50.864;5.176;2023-12-20T06:19:31;5.20;99.90
19941;DHT22;10132;50.864;5.176;2023-12-20T06:21:33;5.10;99.90
19941;DHT22;10132;50.864;5.176;2023-12-20T06:23:35;5.20;99.90
19941;DHT22;10132;50.864;5.176;2023-12-20T06:25:37;5.10;99.90
19941;DHT22;10132;50.864;5.176;2023-12-20T06:27:40;5.10;99.90
19941;DHT22;10132;50.864;5.176;2023-12-20T06:29:42;5.10;99.90
19941;DHT22;10132;50.864;5.176;2023-12-20T06:31:45;5.20;99.90
19941;DHT22;10132;50.864;5.176;2023-12-20T06:33:47;5.10;99.90
19941;DHT22;10132;50.864;5.176;2023-12-20T06:35:57;5.20;99.90
19941;DHT22;10132;50.864;5.176;2023-12-20T06:37:59;5.20;99.90
19941;DHT22;10132;50.864;5.176;2023-12-20T06:40:02;5.20;99.90
19941;DHT22;10132;50.864;5.176;2023-12-20T06:42:04;5.30;99.90
19941;DHT22;10132;50.864;5.176;2023-12-20T06:44:07;5.30;99.90
19941;DHT22;10132;50.864;5.176;2023-12-20T06:46:10;5.40;99.90
19941;DHT22;10132;50.864;5.176;2023-12-20T06:48:13;5.40;99.90
19941;DHT22;10132;50.864;5.176;2023-12-20T06:50:14;5.40;99.90
19941;DHT22;10132;50.864;5.176;2023-12-20T06:52:17;5.50;99.90
19941;DHT22;10132;50.864;5.176;2023-12-20T06:54:19;5.50;99.90
19941;DHT22;10132;50.864;5.176;2023-12-20T06:56:21;5.60;99.90
19941;DHT22;10132;50.864;5.176;2023-12-20T06:58:23;5.60;99.90
19941;DHT22;10132;50.864;5.176;2023-12-20T07:00:26;5.60;99.90
19941;DHT22;10132;50.864;5.176;2023-12-20T07:02:28;5.60;99.90
19941;DHT22;10132;50.864;5.176;2023-12-20T07:04:31;5.60;99.90
19941;DHT22;10132;50.864;5.176;2023-12-20T07:06:33;5.60;99.90
19941;DHT22;10132;50.864;5.176;2023-12-20T07:08:35;5.60;99.90
19941;DHT22;10132;50.864;5.176;2023-12-20T07:10:36;5.60;99.90
19941;DHT22;10132;50.864;5.176;2023-12-20T07:12:38;5.60;99.90
19941;DHT22;10132;50.864;5.176;2023-12-20T07:14:40;5.50;99.90
19941;DHT22;10132;50.864;5.176;2023-12-20T07:16:44;5.50;99.90
19941;DHT22;10132;50.864;5.176;2023-12-20T07:18:46;5.50;99.90
19941;DHT22;10132;50.864;5.176;2023-12-20T07:20:48;5.40;99.90
19941;DHT22;10132;50.864;5.176;2023-12-20T07:22:50;5.40;99.90
19941;DHT22;10132;50.864;5.176;2023-12-20T07:24:52;5.40;99.90
19941;DHT22;10132;50.864;5.176;2023-12-20T07:26:55;5.30;99.90
19941;DHT22;10132;50.864;5.176;2023-12-20T07:28:57;5.30;99.90
19941;DHT22;10132;50.864;5.176;2023-12-20T07:30:59;5.30;99.90
19941;DHT22;10132;50.864;5.176;2023-12-20T07:33:01;5.30;99.90
19941;DHT22;10132;50.864;5.176;2023-12-20T07:35:04;5.30;99.90
19941;DHT22;10132;50.864;5.176;2023-12-20T07:37:06;5.30;99.90
19941;DHT22;10132;50.864;5.176;2023-12-20T07:39:10;5.30;99.90
19941;DHT22;10132;50.864;5.176;2023-12-20T07:41:12;5.20;99.90
19941;DHT22;10132;50.864;5.176;2023-12-20T07:43:16;5.20;99.90
19941;DHT22;10132;50.864;5.176;2023-12-20T07:45:18;5.20;99.90
19941;DHT22;10132;50.864;5.176;2023-12-20T07:47:20;5.20;99.90
19941;DHT22;10132;50.864;5.176;2023-12-20T07:49:23;5.20;99.90
19941;DHT22;10132;50.864;5.176;2023-12-20T07:51:25;5.20;99.90
19941;DHT22;10132;50.864;5.176;2023-12-20T07:53:27;5.10;99.90
19941;DHT22;10132;50.864;5.176;2023-12-20T07:55:29;5.10;99.90
19941;DHT22;10132;50.864;5.176;2023-12-20T07:57:32;5.10;99.90
19941;DHT22;10132;50.864;5.176;2023-12-20T07:59:34;5.10;99.90
19941;DHT22;10132;50.864;5.176;2023-12-20T08:01:36;5.10;99.90
19941;DHT22;10132;50.864;5.176;2023-12-20T08:03:38;5.10;99.90
19941;DHT22;10132;50.864;5.176;2023-12-20T08:05:41;5.10;99.90
19941;DHT22;10132;50.864;5.176;2023-12-20T08:07:43;5.10;99.90
19941;DHT22;10132;50.864;5.176;2023-12-20T08:09:45;5.10;99.90
19941;DHT22;10132;50.864;5.176;2023-12-20T08:11:48;5.10;99.90
19941;DHT22;10132;50.864;5.176;2023-12-20T08:13:50;5.10;99.90
19941;DHT22;10132;50.864;5.176;2023-12-20T08:15:52;5.20;99.90
19941;DHT22;10132;50.864;5.176;2023-12-20T08:17:54;5.20;99.90
19941;DHT22;10132;50.864;5.176;2023-12-20T08:19:57;5.20;99.90
19941;DHT22;10132;50.864;5.176;2023-12-20T08:22:01;5.20;99.90
19941;DHT22;10132;50.864;5.176;2023-12-20T08:24:03;5.20;99.90
19941;DHT22;10132;50.864;5.176;2023-12-20T08:26:05;5.30;99.90
19941;DHT22;10132;50.864;5.176;2023-12-20T08:28:06;5.30;99.90
19941;DHT22;10132;50.864;5.176;2023-12-20T08:30:09;5.30;99.90
19941;DHT22;10132;50.864;5.176;2023-12-20T08:32:11;5.30;99.90
19941;DHT22;10132;50.864;5.176;2023-12-20T08:34:13;5.30;99.90
19941;DHT22;10132;50.864;5.176;2023-12-20T08:36:16;5.30;99.90
19941;DHT22;10132;50.864;5.176;2023-12-20T08:38:20;5.40;99.90
19941;DHT22;10132;50.864;5.176;2023-12-20T08:40:22;5.40;99.90
19941;DHT22;10132;50.864;5.176;2023-12-20T08:42:24;5.40;99.90
19941;DHT22;10132;50.864;5.176;2023-12-20T08:44:31;5.40;99.90
19941;DHT22;10132;50.864;5.176;2023-12-20T08:46:33;5.40;99.90
19941;DHT22;10132;50.864;5.176;2023-12-20T08:48:36;5.40;99.90
19941;DHT22;10132;50.864;5.176;2023-12-20T08:50:37;5.50;99.90
19941;DHT22;10132;50.864;5.176;2023-12-20T08:52:40;5.40;99.90
19941;DHT22;10132;50.864;5.176;2023-12-20T08:54:44;5.50;99.90
19941;DHT22;10132;50.864;5.176;2023-12-20T08:56:45;5.60;99.90
19941;DHT22;10132;50.864;5.176;2023-12-20T08:58:48;5.80;99.90
19941;DHT22;10132;50.864;5.176;2023-12-20T09:00:49;5.90;99.90
19941;DHT22;10132;50.864;5.176;2023-12-20T09:02:50;5.80;99.90
19941;DHT22;10132;50.864;5.176;2023-12-20T09:04:52;5.90;99.90
19941;DHT22;10132;50.864;5.176;2023-12-20T09:06:54;5.80;99.90
19941;DHT22;10132;50.864;5.176;2023-12-20T09:08:56;5.80;99.90
19941;DHT22;10132;50.864;5.176;2023-12-20T09:11:00;5.70;99.90
19941;DHT22;10132;50.864;5.176;2023-12-20T09:13:01;5.60;99.90
19941;DHT22;10132;50.864;5.176;2023-12-20T09:15:05;5.60;99.90
19941;DHT22;10132;50.864;5.176;2023-12-20T09:17:07;5.70;99.90
19941;DHT22;10132;50.864;5.176;2023-12-20T09:19:10;5.90;99.90
19941;DHT22;10132;50.864;5.176;2023-12-20T09:21:12;6.00;99.90
19941;DHT22;10132;50.864;5.176;2023-12-20T09:23:14;6.00;99.90
19941;DHT22;10132;50.864;5.176;2023-12-20T09:25:15;6.10;99.90
19941;DHT22;10132;50.864;5.176;2023-12-20T09:27:19;6.10;99.90
19941;DHT22;10132;50.864;5.176;2023-12-20T09:29:23;6.10;99.90
19941;DHT22;10132;50.864;5.176;2023-12-20T09:31:24;6.10;99.90
19941;DHT22;10132;50.864;5.176;2023-12-20T09:33:26;6.20;99.90
19941;DHT22;10132;50.864;5.176;2023-12-20T09:35:26;6.20;99.90
19941;DHT22;10132;50.864;5.176;2023-12-20T09:37:28;6.30;99.90
19941;DHT22;10132;50.864;5.176;2023-12-20T09:39:29;6.30;99.90
19941;DHT22;10132;50.864;5.176;2023-12-20T09:41:36;6.30;99.90
19941;DHT22;10132;50.864;5.176;2023-12-20T09:43:42;6.40;99.90
19941;DHT22;10132;50.864;5.176;2023-12-20T09:45:46;6.40;99.90
19941;DHT22;10132;50.864;5.176;2023-12-20T09:47:49;6.40;99.90
19941;DHT22;10132;50.864;5.176;2023-12-20T09:49:52;6.40;99.90
19941;DHT22;10132;50.864;5.176;2023-12-20T09:51:54;6.50;99.90
19941;DHT22;10132;50.864;5.176;2023-12-20T09:53:56;6.60;99.90
19941;DHT22;10132;50.864;5.176;2023-12-20T09:55:58;6.60;99.90
19941;DHT22;10132;50.864;5.176;2023-12-20T09:58:01;6.80;99.90
19941;DHT22;10132;50.864;5.176;2023-12-20T10:00:06;6.80;99.90
19941;DHT22;10132;50.864;5.176;2023-12-20T10:02:13;6.80;99.90
19941;DHT22;10132;50.864;5.176;2023-12-20T10:04:15;6.90;99.90
19941;DHT22;10132;50.864;5.176;2023-12-20T10:06:17;7.00;99.90
19941;DHT22;10132;50.864;5.176;2023-12-20T10:08:21;7.00;99.90
19941;DHT22;10132;50.864;5.176;2023-12-20T10:10:23;7.00;99.90
19941;DHT22;10132;50.864;5.176;2023-12-20T10:12:25;7.10;99.90
19941;DHT22;10132;50.864;5.176;2023-12-20T10:14:27;7.10;99.90
19941;DHT22;10132;50.864;5.176;2023-12-20T10:16:31;7.10;99.90
19941;DHT22;10132;50.864;5.176;2023-12-20T10:18:34;7.00;99.90
19941;DHT22;10132;50.864;5.176;2023-12-20T10:20:36;7.00;99.90
19941;DHT22;10132;50.864;5.176;2023-12-20T10:22:38;7.10;99.90
19941;DHT22;10132;50.864;5.176;2023-12-20T10:24:41;7.20;99.90
19941;DHT22;10132;50.864;5.176;2023-12-20T10:26:43;7.10;99.90
19941;DHT22;10132;50.864;5.176;2023-12-20T10:28:45;7.10;99.90
19941;DHT22;10132;50.864;5.176;2023-12-20T10:30:47;7.20;99.90
19941;DHT22;10132;50.864;5.176;2023-12-20T10:32:50;7.30;99.90
19941;DHT22;10132;50.864;5.176;2023-12-20T10:34:54;7.30;99.90
19941;DHT22;10132;50.864;5.176;2023-12-20T10:36:56;7.30;99.90
19941;DHT22;10132;50.864;5.176;2023-12-20T10:38:58;7.30;99.90
19941;DHT22;10132;50.864;5.176;2023-12-20T10:41:01;7.30;99.90
19941;DHT22;10132;50.864;5.176;2023-12-20T10:43:05;7.20;99.90
19941;DHT22;10132;50.864;5.176;2023-12-20T10:45:07;7.30;99.90
19941;DHT22;10132;50.864;5.176;2023-12-20T10:47:09;7.30;99.90
19941;DHT22;10132;50.864;5.176;2023-12-20T10:49:15;7.30;99.90
19941;DHT22;10132;50.864;5.176;2023-12-20T10:51:17;7.40;99.90
19941;DHT22;10132;50.864;5.176;2023-12-20T10:53:20;7.40;99.90
19941;DHT22;10132;50.864;5.176;2023-12-20T10:55:23;7.40;99.90
19941;DHT22;10132;50.864;5.176;2023-12-20T10:57:25;7.50;99.90
19941;DHT22;10132;50.864;5.176;2023-12-20T10:59:29;7.40;99.90
19941;DHT22;10132;50.864;5.176;2023-12-20T11:01:33;7.50;99.90
19941;DHT22;10132;50.864;5.176;2023-12-20T11:03:36;7.40;99.90
19941;DHT22;10132;50.864;5.176;2023-12-20T11:05:46;7.50;99.90
19941;DHT22;10132;50.864;5.176;2023-12-20T11:07:54;7.50;99.90
19941;DHT22;10132;50.864;5.176;2023-12-20T11:09:59;7.50;99.90
19941;DHT22;10132;50.864;5.176;2023-12-20T11:12:08;7.60;99.90
19941;DHT22;10132;50.864;5.176;2023-12-20T11:14:22;7.60;99.90
19941;DHT22;10132;50.864;5.176;2023-12-20T11:16:25;7.60;99.90
19941;DHT22;10132;50.864;5.176;2023-12-20T11:18:29;7.60;99.90
19941;DHT22;10132;50.864;5.176;2023-12-20T11:20:48;7.60;99.90
19941;DHT22;10132;50.864;5.176;2023-12-20T11:22:54;7.70;99.90
19941;DHT22;10132;50.864;5.176;2023-12-20T11:25:00;7.70;99.90
19941;DHT22;10132;50.864;5.176;2023-12-20T11:27:04;7.70;99.90
19941;DHT22;10132;50.864;5.176;2023-12-20T11:29:31;7.70;99.90
19941;DHT22;10132;50.864;5.176;2023-12-20T11:31:40;7.80;99.90
19941;DHT22;10132;50.864;5.176;2023-12-20T11:33:42;7.70;99.90
19941;DHT22;10132;50.864;5.176;2023-12-20T11:35:45;7.80;99.90
19941;DHT22;10132;50.864;5.176;2023-12-20T11:37:48;7.80;99.90
19941;DHT22;10132;50.864;5.176;2023-12-20T11:39:55;7.90;99.90
19941;DHT22;10132;50.864;5.176;2023-12-20T11:41:57;8.00;99.90
19941;DHT22;10132;50.864;5.176;2023-12-20T11:44:05;7.90;99.90
19941;DHT22;10132;50.864;5.176;2023-12-20T11:46:08;7.90;99.90
19941;DHT22;10132;50.864;5.176;2023-12-20T11:48:10;7.80;99.90
19941;DHT22;10132;50.864;5.176;2023-12-20T11:50:14;7.80;99.90
19941;DHT22;10132;50.864;5.176;2023-12-20T11:52:16;7.80;99.90
19941;DHT22;10132;50.864;5.176;2023-12-20T11:54:18;7.90;99.90
19941;DHT22;10132;50.864;5.176;2023-12-20T11:56:20;7.90;99.90
19941;DHT22;10132;50.864;5.176;2023-12-20T11:58:22;7.90;99.90
19941;DHT22;10132;50.864;5.176;2023-12-20T12:00:25;7.80;99.90
19941;DHT22;10132;50.864;5.176;2023-12-20T12:02:26;7.70;99.90
19941;DHT22;10132;50.864;5.176;2023-12-20T12:04:27;7.80;99.90
19941;DHT22;10132;50.864;5.176;2023-12-20T12:06:30;7.90;99.90
19941;DHT22;10132;50.864;5.176;2023-12-20T12:08:31;7.90;99.90
19941;DHT22;10132;50.864;5.176;2023-12-20T12:10:34;7.90;99.90
19941;DHT22;10132;50.864;5.176;2023-12-20T12:12:36;7.90;99.90
19941;DHT22;10132;50.864;5.176;2023-12-20T12:14:38;7.90;99.90
19941;DHT22;10132;50.864;5.176;2023-12-20T12:16:41;7.90;99.90
19941;DHT22;10132;50.864;5.176;2023-12-20T12:18:44;7.80;99.90
19941;DHT22;10132;50.864;5.176;2023-12-20T12:20:46;7.90;99.90
19941;DHT22;10132;50.864;5.176;2023-12-20T12:22:57;7.90;99.90
19941;DHT22;10132;50.864;5.176;2023-12-20T12:25:08;7.90;99.90
19941;DHT22;10132;50.864;5.176;2023-12-20T12:27:12;7.90;99.90
19941;DHT22;10132;50.864;5.176;2023-12-20T12:29:15;7.90;99.90
19941;DHT22;10132;50.864;5.176;2023-12-20T12:31:17;7.90;99.90
19941;DHT22;10132;50.864;5.176;2023-12-20T12:33:19;8.00;99.90
19941;DHT22;10132;50.864;5.176;2023-12-20T12:35:21;8.00;99.90
19941;DHT22;10132;50.864;5.176;2023-12-20T12:37:24;8.00;99.90
19941;DHT22;10132;50.864;5.176;2023-12-20T12:39:25;8.00;99.90
19941;DHT22;10132;50.864;5.176;2023-12-20T12:41:28;8.00;99.90
19941;DHT22;10132;50.864;5.176;2023-12-20T12:43:32;8.00;99.90
19941;DHT22;10132;50.864;5.176;2023-12-20T12:45:34;8.00;99.90
19941;DHT22;10132;50.864;5.176;2023-12-20T12:47:36;8.10;99.90
19941;DHT22;10132;50.864;5.176;2023-12-20T12:49:38;8.10;99.90
19941;DHT22;10132;50.864;5.176;2023-12-20T12:51:42;8.10;99.90
19941;DHT22;10132;50.864;5.176;2023-12-20T12:53:44;8.20;99.90
19941;DHT22;10132;50.864;5.176;2023-12-20T12:55:46;8.10;99.90
19941;DHT22;10132;50.864;5.176;2023-12-20T12:57:48;8.10;99.90
19941;DHT22;10132;50.864;5.176;2023-12-20T12:59:52;8.10;99.90
19941;DHT22;10132;50.864;5.176;2023-12-20T13:01:54;8.10;99.90
19941;DHT22;10132;50.864;5.176;2023-12-20T13:03:56;8.00;99.90
19941;DHT22;10132;50.864;5.176;2023-12-20T13:05:57;8.00;99.90